sensor_id;sensor_type;location;lat;lon;timestamp;P1;durP1;ratioP1;P2;durP2;ratioP2
30862;SDS011;17573;55.922;37.540;2022-08-21T00:00:41;50.08;;;27.10;;
30862;SDS011;17573;55.922;37.540;2022-08-21T00:03:20;55.38;;;28.58;;
30862;SDS011;17573;55.922;37.540;2022-08-21T00:06:06;52.25;;;26.33;;
30862;SDS011;17573;55.922;37.540;2022-08-21T00:08:45;47.50;;;25.70;;
30862;SDS011;17573;55.922;37.540;2022-08-21T00:11:31;54.67;;;26.80;;
30862;SDS011;17573;55.922;37.540;2022-08-21T00:14:12;53.78;;;26.45;;
30862;SDS011;17573;55.922;37.540;2022-08-21T00:16:59;48.05;;;27.17;;
30862;SDS011;17573;55.922;37.540;2022-08-21T00:19:39;48.83;;;27.45;;
30862;SDS011;17573;55.922;37.540;2022-08-21T00:22:25;58.83;;;25.95;;
30862;SDS011;17573;55.922;37.540;2022-08-21T00:25:06;51.17;;;25.65;;
30862;SDS011;17573;55.922;37.540;2022-08-21T00:27:52;55.30;;;27.48;;
30862;SDS011;17573;55.922;37.540;2022-08-21T00:30:32;56.22;;;27.08;;
30862;SDS011;17573;55.922;37.540;2022-08-21T00:33:19;49.15;;;26.73;;
30862;SDS011;17573;55.922;37.540;2022-08-21T00:35:59;46.28;;;26.52;;
30862;SDS011;17573;55.922;37.540;2022-08-21T00:38:46;49.97;;;26.27;;
30862;SDS011;17573;55.922;37.540;2022-08-21T00:41:25;48.95;;;25.73;;
30862;SDS011;17573;55.922;37.540;2022-08-21T00:44:13;53.88;;;28.33;;
30862;SDS011;17573;55.922;37.540;2022-08-21T00:46:52;48.95;;;27.25;;
30862;SDS011;17573;55.922;37.540;2022-08-21T00:49:38;54.53;;;28.50;;
30862;SDS011;17573;55.922;37.540;2022-08-21T00:52:19;47.70;;;27.38;;
30862;SDS011;17573;55.922;37.540;2022-08-21T00:55:06;43.95;;;26.33;;
30862;SDS011;17573;55.922;37.540;2022-08-21T00:57:50;45.20;;;26.95;;
30862;SDS011;17573;55.922;37.540;2022-08-21T01:00:39;53.20;;;28.77;;
30862;SDS011;17573;55.922;37.540;2022-08-21T01:03:21;64.97;;;28.58;;
30862;SDS011;17573;55.922;37.540;2022-08-21T01:06:08;50.45;;;27.77;;
30862;SDS011;17573;55.922;37.540;2022-08-21T01:08:47;57.30;;;27.42;;
30862;SDS011;17573;55.922;37.540;2022-08-21T01:11:33;48.25;;;27.65;;
30862;SDS011;17573;55.922;37.540;2022-08-21T01:14:12;45.80;;;27.25;;
30862;SDS011;17573;55.922;37.540;2022-08-21T01:17:00;45.80;;;27.15;;
30862;SDS011;17573;55.922;37.540;2022-08-21T01:19:41;54.30;;;27.25;;
30862;SDS011;17573;55.922;37.540;2022-08-21T01:22:27;45.60;;;25.60;;
30862;SDS011;17573;55.922;37.540;2022-08-21T01:25:07;47.60;;;26.02;;
30862;SDS011;17573;55.922;37.540;2022-08-21T01:27:54;47.03;;;25.35;;
30862;SDS011;17573;55.922;37.540;2022-08-21T01:30:33;61.92;;;27.92;;
30862;SDS011;17573;55.922;37.540;2022-08-21T01:33:20;45.88;;;24.85;;
30862;SDS011;17573;55.922;37.540;2022-08-21T01:36:13;50.40;;;26.23;;
30862;SDS011;17573;55.922;37.540;2022-08-21T01:42:38;46.80;;;25.90;;
30862;SDS011;17573;55.922;37.540;2022-08-21T01:45:18;44.05;;;25.55;;
30862;SDS011;17573;55.922;37.540;2022-08-21T01:48:04;52.50;;;27.00;;
30862;SDS011;17573;55.922;37.540;2022-08-21T01:50:43;53.60;;;27.55;;
30862;SDS011;17573;55.922;37.540;2022-08-21T01:53:29;47.30;;;26.75;;
30862;SDS011;17573;55.922;37.540;2022-08-21T01:56:09;54.50;;;27.65;;
30862;SDS011;17573;55.922;37.540;2022-08-21T01:58:57;48.90;;;26.75;;
30862;SDS011;17573;55.922;37.540;2022-08-21T02:01:36;51.08;;;27.77;;
30862;SDS011;17573;55.922;37.540;2022-08-21T02:04:22;55.55;;;28.48;;
30862;SDS011;17573;55.922;37.540;2022-08-21T02:07:02;56.05;;;27.23;;
30862;SDS011;17573;55.922;37.540;2022-08-21T02:09:49;47.42;;;28.15;;
30862;SDS011;17573;55.922;37.540;2022-08-21T02:12:28;47.47;;;27.67;;
30862;SDS011;17573;55.922;37.540;2022-08-21T02:15:34;54.22;;;28.02;;
30862;SDS011;17573;55.922;37.540;2022-08-21T02:18:14;62.97;;;31.38;;
30862;SDS011;17573;55.922;37.540;2022-08-21T02:21:00;54.30;;;31.08;;
30862;SDS011;17573;55.922;37.540;2022-08-21T02:23:39;64.60;;;31.60;;
30862;SDS011;17573;55.922;37.540;2022-08-21T02:26:25;52.00;;;29.52;;
30862;SDS011;17573;55.922;37.540;2022-08-21T02:29:04;64.97;;;31.58;;
30862;SDS011;17573;55.922;37.540;2022-08-21T02:31:50;48.58;;;31.10;;
30862;SDS011;17573;55.922;37.540;2022-08-21T02:34:29;51.72;;;30.92;;
30862;SDS011;17573;55.922;37.540;2022-08-21T02:37:15;62.00;;;33.85;;
30862;SDS011;17573;55.922;37.540;2022-08-21T02:39:55;58.70;;;35.05;;
30862;SDS011;17573;55.922;37.540;2022-08-21T02:42:43;62.85;;;34.50;;
30862;SDS011;17573;55.922;37.540;2022-08-21T02:45:23;63.38;;;35.13;;
30862;SDS011;17573;55.922;37.540;2022-08-21T02:48:10;69.68;;;34.78;;
30862;SDS011;17573;55.922;37.540;2022-08-21T02:50:56;66.63;;;37.13;;
30862;SDS011;17573;55.922;37.540;2022-08-21T02:53:46;71.25;;;35.83;;
30862;SDS011;17573;55.922;37.540;2022-08-21T02:56:26;68.30;;;35.63;;
30862;SDS011;17573;55.922;37.540;2022-08-21T02:59:12;72.97;;;38.72;;
30862;SDS011;17573;55.922;37.540;2022-08-21T03:01:51;66.88;;;38.35;;
30862;SDS011;17573;55.922;37.540;2022-08-21T03:04:37;62.95;;;37.33;;
30862;SDS011;17573;55.922;37.540;2022-08-21T03:07:16;69.13;;;38.65;;
30862;SDS011;17573;55.922;37.540;2022-08-21T03:10:05;83.20;;;41.25;;
30862;SDS011;17573;55.922;37.540;2022-08-21T03:12:44;80.35;;;40.65;;
30862;SDS011;17573;55.922;37.540;2022-08-21T03:15:30;81.57;;;39.50;;
30862;SDS011;17573;55.922;37.540;2022-08-21T03:18:10;65.70;;;40.58;;
30862;SDS011;17573;55.922;37.540;2022-08-21T03:20:56;80.55;;;41.40;;
30862;SDS011;17573;55.922;37.540;2022-08-21T03:23:35;78.97;;;42.70;;
30862;SDS011;17573;55.922;37.540;2022-08-21T03:26:21;87.60;;;43.97;;
30862;SDS011;17573;55.922;37.540;2022-08-21T03:29:00;92.00;;;48.58;;
30862;SDS011;17573;55.922;37.540;2022-08-21T03:31:46;75.70;;;44.70;;
30862;SDS011;17573;55.922;37.540;2022-08-21T03:34:25;78.70;;;44.97;;
30862;SDS011;17573;55.922;37.540;2022-08-21T03:37:11;88.97;;;47.78;;
30862;SDS011;17573;55.922;37.540;2022-08-21T03:39:51;80.10;;;47.55;;
30862;SDS011;17573;55.922;37.540;2022-08-21T03:42:37;83.50;;;48.22;;
30862;SDS011;17573;55.922;37.540;2022-08-21T03:45:17;84.57;;;48.45;;
30862;SDS011;17573;55.922;37.540;2022-08-21T03:48:03;84.43;;;48.00;;
30862;SDS011;17573;55.922;37.540;2022-08-21T03:50:43;82.63;;;46.13;;
30862;SDS011;17573;55.922;37.540;2022-08-21T03:53:29;84.38;;;49.40;;
30862;SDS011;17573;55.922;37.540;2022-08-21T03:56:08;84.35;;;47.45;;
30862;SDS011;17573;55.922;37.540;2022-08-21T03:58:54;88.60;;;49.60;;
30862;SDS011;17573;55.922;37.540;2022-08-21T04:01:34;84.72;;;51.83;;
30862;SDS011;17573;55.922;37.540;2022-08-21T04:04:20;85.63;;;50.03;;
30862;SDS011;17573;55.922;37.540;2022-08-21T04:06:59;91.90;;;51.40;;
30862;SDS011;17573;55.922;37.540;2022-08-21T04:09:45;92.05;;;51.05;;
30862;SDS011;17573;55.922;37.540;2022-08-21T04:12:24;96.30;;;51.97;;
30862;SDS011;17573;55.922;37.540;2022-08-21T04:15:10;90.78;;;51.05;;
30862;SDS011;17573;55.922;37.540;2022-08-21T04:17:49;96.95;;;55.15;;
30862;SDS011;17573;55.922;37.540;2022-08-21T04:20:35;91.78;;;54.40;;
30862;SDS011;17573;55.922;37.540;2022-08-21T04:23:14;103.43;;;57.47;;
30862;SDS011;17573;55.922;37.540;2022-08-21T04:26:00;108.88;;;57.92;;
30862;SDS011;17573;55.922;37.540;2022-08-21T04:28:39;99.40;;;57.33;;
30862;SDS011;17573;55.922;37.540;2022-08-21T04:31:25;109.45;;;55.22;;
30862;SDS011;17573;55.922;37.540;2022-08-21T04:34:05;97.75;;;58.42;;
30862;SDS011;17573;55.922;37.540;2022-08-21T04:36:51;108.75;;;60.17;;
30862;SDS011;17573;55.922;37.540;2022-08-21T04:39:30;100.20;;;56.30;;
30862;SDS011;17573;55.922;37.540;2022-08-21T04:42:16;100.05;;;57.90;;
30862;SDS011;17573;55.922;37.540;2022-08-21T04:44:55;114.88;;;58.63;;
30862;SDS011;17573;55.922;37.540;2022-08-21T04:47:41;102.10;;;57.78;;
30862;SDS011;17573;55.922;37.540;2022-08-21T04:50:28;96.72;;;56.00;;
30862;SDS011;17573;55.922;37.540;2022-08-21T04:53:36;99.68;;;60.10;;
30862;SDS011;17573;55.922;37.540;2022-08-21T04:59:31;99.32;;;55.97;;
30862;SDS011;17573;55.922;37.540;2022-08-21T05:02:12;102.55;;;59.88;;
30862;SDS011;17573;55.922;37.540;2022-08-21T05:04:59;97.65;;;58.13;;
30862;SDS011;17573;55.922;37.540;2022-08-21T05:07:38;94.35;;;54.88;;
30862;SDS011;17573;55.922;37.540;2022-08-21T05:10:24;90.32;;;50.53;;
30862;SDS011;17573;55.922;37.540;2022-08-21T05:13:05;91.18;;;51.67;;
30862;SDS011;17573;55.922;37.540;2022-08-21T05:15:51;91.28;;;51.45;;
30862;SDS011;17573;55.922;37.540;2022-08-21T05:18:30;98.35;;;57.15;;
30862;SDS011;17573;55.922;37.540;2022-08-21T05:21:16;104.70;;;56.33;;
30862;SDS011;17573;55.922;37.540;2022-08-21T05:23:55;95.93;;;57.13;;
30862;SDS011;17573;55.922;37.540;2022-08-21T05:26:41;90.60;;;52.53;;
30862;SDS011;17573;55.922;37.540;2022-08-21T05:29:20;88.63;;;52.83;;
30862;SDS011;17573;55.922;37.540;2022-08-21T05:32:10;92.93;;;52.83;;
30862;SDS011;17573;55.922;37.540;2022-08-21T05:34:49;99.53;;;58.10;;
30862;SDS011;17573;55.922;37.540;2022-08-21T05:37:35;88.45;;;51.13;;
30862;SDS011;17573;55.922;37.540;2022-08-21T05:40:14;99.43;;;57.55;;
30862;SDS011;17573;55.922;37.540;2022-08-21T05:43:00;86.18;;;49.17;;
30862;SDS011;17573;55.922;37.540;2022-08-21T05:45:40;96.88;;;54.35;;
30862;SDS011;17573;55.922;37.540;2022-08-21T05:48:27;84.22;;;48.78;;
30862;SDS011;17573;55.922;37.540;2022-08-21T05:51:09;86.78;;;52.65;;
30862;SDS011;17573;55.922;37.540;2022-08-21T05:53:56;80.32;;;49.08;;
30862;SDS011;17573;55.922;37.540;2022-08-21T05:56:35;83.55;;;50.75;;
30862;SDS011;17573;55.922;37.540;2022-08-21T05:59:22;84.15;;;48.38;;
30862;SDS011;17573;55.922;37.540;2022-08-21T06:02:03;92.55;;;53.17;;
30862;SDS011;17573;55.922;37.540;2022-08-21T06:04:49;90.28;;;53.03;;
30862;SDS011;17573;55.922;37.540;2022-08-21T06:07:29;84.00;;;51.70;;
30862;SDS011;17573;55.922;37.540;2022-08-21T06:10:14;84.07;;;51.63;;
30862;SDS011;17573;55.922;37.540;2022-08-21T06:12:53;84.88;;;48.38;;
30862;SDS011;17573;55.922;37.540;2022-08-21T06:15:39;87.10;;;47.95;;
30862;SDS011;17573;55.922;37.540;2022-08-21T06:18:18;81.40;;;49.65;;
30862;SDS011;17573;55.922;37.540;2022-08-21T06:21:04;76.72;;;49.78;;
30862;SDS011;17573;55.922;37.540;2022-08-21T06:23:44;91.50;;;50.85;;
30862;SDS011;17573;55.922;37.540;2022-08-21T06:26:30;79.13;;;47.90;;
30862;SDS011;17573;55.922;37.540;2022-08-21T06:29:10;76.72;;;45.17;;
30862;SDS011;17573;55.922;37.540;2022-08-21T06:31:58;78.13;;;44.05;;
30862;SDS011;17573;55.922;37.540;2022-08-21T06:34:38;77.35;;;44.40;;
30862;SDS011;17573;55.922;37.540;2022-08-21T06:37:25;88.60;;;47.13;;
30862;SDS011;17573;55.922;37.540;2022-08-21T06:40:05;86.68;;;44.55;;
30862;SDS011;17573;55.922;37.540;2022-08-21T06:43:04;70.93;;;42.85;;
30862;SDS011;17573;55.922;37.540;2022-08-21T06:45:45;84.93;;;45.50;;
30862;SDS011;17573;55.922;37.540;2022-08-21T06:48:31;73.30;;;42.95;;
30862;SDS011;17573;55.922;37.540;2022-08-21T06:51:11;76.40;;;48.78;;
30862;SDS011;17573;55.922;37.540;2022-08-21T06:53:57;74.53;;;41.33;;
30862;SDS011;17573;55.922;37.540;2022-08-21T06:56:36;64.82;;;42.47;;
30862;SDS011;17573;55.922;37.540;2022-08-21T06:59:22;74.32;;;39.38;;
30862;SDS011;17573;55.922;37.540;2022-08-21T07:02:01;66.50;;;39.72;;
30862;SDS011;17573;55.922;37.540;2022-08-21T07:04:47;63.22;;;39.97;;
30862;SDS011;17573;55.922;37.540;2022-08-21T07:07:28;76.25;;;38.70;;
30862;SDS011;17573;55.922;37.540;2022-08-21T07:10:14;61.50;;;36.17;;
30862;SDS011;17573;55.922;37.540;2022-08-21T07:12:53;64.38;;;38.55;;
30862;SDS011;17573;55.922;37.540;2022-08-21T07:15:40;63.88;;;39.03;;
30862;SDS011;17573;55.922;37.540;2022-08-21T07:18:19;64.55;;;37.03;;
30862;SDS011;17573;55.922;37.540;2022-08-21T07:21:05;60.03;;;34.53;;
30862;SDS011;17573;55.922;37.540;2022-08-21T07:23:47;60.65;;;34.53;;
30862;SDS011;17573;55.922;37.540;2022-08-21T07:26:34;55.65;;;35.28;;
30862;SDS011;17573;55.922;37.540;2022-08-21T07:29:13;61.47;;;32.95;;
30862;SDS011;17573;55.922;37.540;2022-08-21T07:31:59;58.58;;;32.10;;
30862;SDS011;17573;55.922;37.540;2022-08-21T07:34:38;50.50;;;27.48;;
30862;SDS011;17573;55.922;37.540;2022-08-21T07:37:24;58.03;;;33.97;;
30862;SDS011;17573;55.922;37.540;2022-08-21T07:40:03;50.92;;;31.05;;
30862;SDS011;17573;55.922;37.540;2022-08-21T07:42:50;56.00;;;34.05;;
30862;SDS011;17573;55.922;37.540;2022-08-21T07:45:30;61.55;;;34.72;;
30862;SDS011;17573;55.922;37.540;2022-08-21T07:48:16;61.03;;;36.72;;
30862;SDS011;17573;55.922;37.540;2022-08-21T07:50:55;61.97;;;33.47;;
30862;SDS011;17573;55.922;37.540;2022-08-21T07:53:41;58.40;;;33.00;;
30862;SDS011;17573;55.922;37.540;2022-08-21T07:56:21;62.70;;;32.72;;
30862;SDS011;17573;55.922;37.540;2022-08-21T07:59:07;55.83;;;31.45;;
30862;SDS011;17573;55.922;37.540;2022-08-21T08:01:46;52.55;;;31.33;;
30862;SDS011;17573;55.922;37.540;2022-08-21T08:04:32;58.75;;;29.20;;
30862;SDS011;17573;55.922;37.540;2022-08-21T08:07:11;55.05;;;31.95;;
30862;SDS011;17573;55.922;37.540;2022-08-21T08:09:57;51.28;;;30.33;;
30862;SDS011;17573;55.922;37.540;2022-08-21T08:12:37;58.05;;;28.98;;
30862;SDS011;17573;55.922;37.540;2022-08-21T08:15:25;58.38;;;29.40;;
30862;SDS011;17573;55.922;37.540;2022-08-21T08:18:05;54.22;;;28.80;;
30862;SDS011;17573;55.922;37.540;2022-08-21T08:20:52;55.97;;;30.77;;
30862;SDS011;17573;55.922;37.540;2022-08-21T08:23:32;57.20;;;30.40;;
30862;SDS011;17573;55.922;37.540;2022-08-21T08:26:18;45.22;;;28.65;;
30862;SDS011;17573;55.922;37.540;2022-08-21T08:28:57;57.85;;;29.42;;
30862;SDS011;17573;55.922;37.540;2022-08-21T08:31:43;46.50;;;26.90;;
30862;SDS011;17573;55.922;37.540;2022-08-21T08:34:22;45.78;;;23.88;;
30862;SDS011;17573;55.922;37.540;2022-08-21T08:37:08;44.40;;;22.20;;
30862;SDS011;17573;55.922;37.540;2022-08-21T08:39:48;68.22;;;22.20;;
30862;SDS011;17573;55.922;37.540;2022-08-21T08:42:35;34.78;;;17.10;;
30862;SDS011;17573;55.922;37.540;2022-08-21T08:45:18;42.95;;;20.13;;
30862;SDS011;17573;55.922;37.540;2022-08-21T08:48:06;50.55;;;25.20;;
30862;SDS011;17573;55.922;37.540;2022-08-21T08:50:52;41.50;;;25.80;;
30862;SDS011;17573;55.922;37.540;2022-08-21T08:53:59;51.80;;;26.27;;
30862;SDS011;17573;55.922;37.540;2022-08-21T08:56:41;43.05;;;26.52;;
30862;SDS011;17573;55.922;37.540;2022-08-21T08:59:40;40.78;;;25.67;;
30862;SDS011;17573;55.922;37.540;2022-08-21T09:02:22;48.60;;;24.40;;
30862;SDS011;17573;55.922;37.540;2022-08-21T09:05:24;52.70;;;27.15;;
30862;SDS011;17573;55.922;37.540;2022-08-21T09:17:25;43.80;;;24.70;;
30862;SDS011;17573;55.922;37.540;2022-08-21T09:23:40;39.80;;;22.15;;
30862;SDS011;17573;55.922;37.540;2022-08-21T09:26:27;49.22;;;22.92;;
30862;SDS011;17573;55.922;37.540;2022-08-21T09:29:35;39.10;;;20.50;;
30862;SDS011;17573;55.922;37.540;2022-08-21T09:35:08;50.67;;;24.67;;
30862;SDS011;17573;55.922;37.540;2022-08-21T09:40:46;41.70;;;21.55;;
30862;SDS011;17573;55.922;37.540;2022-08-21T09:43:27;33.33;;;19.35;;
30862;SDS011;17573;55.922;37.540;2022-08-21T09:46:20;43.45;;;21.83;;
30862;SDS011;17573;55.922;37.540;2022-08-21T09:49:02;43.28;;;21.73;;
30862;SDS011;17573;55.922;37.540;2022-08-21T09:51:52;42.65;;;23.80;;
30862;SDS011;17573;55.922;37.540;2022-08-21T09:54:34;44.50;;;24.02;;
30862;SDS011;17573;55.922;37.540;2022-08-21T09:57:27;37.22;;;23.17;;
30862;SDS011;17573;55.922;37.540;2022-08-21T10:03:18;55.08;;;25.42;;
30862;SDS011;17573;55.922;37.540;2022-08-21T10:06:01;44.00;;;23.70;;
30862;SDS011;17573;55.922;37.540;2022-08-21T10:09:10;48.50;;;24.50;;
30862;SDS011;17573;55.922;37.540;2022-08-21T10:35:27;38.08;;;22.63;;
30862;SDS011;17573;55.922;37.540;2022-08-21T10:50:42;36.47;;;19.75;;
30862;SDS011;17573;55.922;37.540;2022-08-21T10:53:22;40.58;;;22.10;;
30862;SDS011;17573;55.922;37.540;2022-08-21T10:56:32;32.75;;;19.13;;
30862;SDS011;17573;55.922;37.540;2022-08-21T11:02:22;53.67;;;19.25;;
30862;SDS011;17573;55.922;37.540;2022-08-21T11:07:58;37.88;;;18.02;;
30862;SDS011;17573;55.922;37.540;2022-08-21T11:10:45;43.15;;;20.85;;
30862;SDS011;17573;55.922;37.540;2022-08-21T11:13:58;27.50;;;16.92;;
30862;SDS011;17573;55.922;37.540;2022-08-21T11:22:41;38.28;;;15.80;;
30862;SDS011;17573;55.922;37.540;2022-08-21T11:25:41;32.67;;;16.58;;
30862;SDS011;17573;55.922;37.540;2022-08-21T11:28:50;39.08;;;17.98;;
30862;SDS011;17573;55.922;37.540;2022-08-21T11:31:34;43.03;;;17.17;;
30862;SDS011;17573;55.922;37.540;2022-08-21T11:34:43;41.72;;;18.35;;
30862;SDS011;17573;55.922;37.540;2022-08-21T11:43:47;44.20;;;18.02;;
30862;SDS011;17573;55.922;37.540;2022-08-21T11:46:44;33.53;;;15.98;;
30862;SDS011;17573;55.922;37.540;2022-08-21T11:52:37;38.15;;;16.73;;
30862;SDS011;17573;55.922;37.540;2022-08-21T11:55:26;36.38;;;18.25;;
30862;SDS011;17573;55.922;37.540;2022-08-21T11:58:47;60.13;;;20.67;;
30862;SDS011;17573;55.922;37.540;2022-08-21T12:01:25;38.13;;;18.13;;
30862;SDS011;17573;55.922;37.540;2022-08-21T12:04:29;40.33;;;17.38;;
30862;SDS011;17573;55.922;37.540;2022-08-21T12:07:14;34.53;;;14.68;;
30862;SDS011;17573;55.922;37.540;2022-08-21T12:10:18;39.22;;;15.05;;
30862;SDS011;17573;55.922;37.540;2022-08-21T12:12:54;42.13;;;16.20;;
30862;SDS011;17573;55.922;37.540;2022-08-21T12:16:37;37.75;;;17.13;;
30862;SDS011;17573;55.922;37.540;2022-08-21T12:22:13;41.63;;;16.35;;
30862;SDS011;17573;55.922;37.540;2022-08-21T12:24:48;34.58;;;16.38;;
30862;SDS011;17573;55.922;37.540;2022-08-21T12:27:47;33.63;;;17.40;;
30862;SDS011;17573;55.922;37.540;2022-08-21T12:30:32;32.55;;;16.75;;
30862;SDS011;17573;55.922;37.540;2022-08-21T12:33:32;37.33;;;18.50;;
30862;SDS011;17573;55.922;37.540;2022-08-21T12:36:14;35.13;;;13.43;;
30862;SDS011;17573;55.922;37.540;2022-08-21T12:39:15;26.60;;;12.73;;
30862;SDS011;17573;55.922;37.540;2022-08-21T12:42:01;29.60;;;13.40;;
30862;SDS011;17573;55.922;37.540;2022-08-21T12:46:00;24.83;;;12.77;;
30862;SDS011;17573;55.922;37.540;2022-08-21T12:51:22;29.48;;;10.63;;
30862;SDS011;17573;55.922;37.540;2022-08-21T12:53:58;27.40;;;9.77;;
30862;SDS011;17573;55.922;37.540;2022-08-21T12:57:17;28.40;;;10.55;;
30862;SDS011;17573;55.922;37.540;2022-08-21T12:59:52;39.40;;;12.50;;
30862;SDS011;17573;55.922;37.540;2022-08-21T13:02:51;35.13;;;12.93;;
30862;SDS011;17573;55.922;37.540;2022-08-21T13:08:21;28.60;;;9.73;;
30862;SDS011;17573;55.922;37.540;2022-08-21T13:10:56;39.03;;;10.77;;
30862;SDS011;17573;55.922;37.540;2022-08-21T13:13:52;25.73;;;14.00;;
30862;SDS011;17573;55.922;37.540;2022-08-21T13:16:26;27.40;;;14.13;;
30862;SDS011;17573;55.922;37.540;2022-08-21T13:19:19;38.03;;;13.13;;
30862;SDS011;17573;55.922;37.540;2022-08-21T13:21:52;32.65;;;14.50;;
30862;SDS011;17573;55.922;37.540;2022-08-21T13:24:46;32.47;;;12.10;;
30862;SDS011;17573;55.922;37.540;2022-08-21T13:30:19;23.13;;;11.88;;
30862;SDS011;17573;55.922;37.540;2022-08-21T13:32:54;26.15;;;13.15;;
30862;SDS011;17573;55.922;37.540;2022-08-21T13:36:00;24.55;;;12.50;;
30862;SDS011;17573;55.922;37.540;2022-08-21T13:38:35;36.15;;;15.32;;
30862;SDS011;17573;55.922;37.540;2022-08-21T13:41:31;25.15;;;13.60;;
30862;SDS011;17573;55.922;37.540;2022-08-21T13:44:06;28.00;;;14.15;;
30862;SDS011;17573;55.922;37.540;2022-08-21T13:47:13;39.17;;;15.95;;
30862;SDS011;17573;55.922;37.540;2022-08-21T13:49:47;31.10;;;15.30;;
30862;SDS011;17573;55.922;37.540;2022-08-21T13:53:01;35.55;;;18.83;;
30862;SDS011;17573;55.922;37.540;2022-08-21T13:55:41;28.20;;;17.55;;
30862;SDS011;17573;55.922;37.540;2022-08-21T13:58:42;38.10;;;19.50;;
30862;SDS011;17573;55.922;37.540;2022-08-21T14:04:16;33.85;;;19.38;;
30862;SDS011;17573;55.922;37.540;2022-08-21T14:06:51;42.92;;;22.38;;
30862;SDS011;17573;55.922;37.540;2022-08-21T14:09:45;35.17;;;20.20;;
30862;SDS011;17573;55.922;37.540;2022-08-21T14:12:37;48.92;;;21.83;;
30862;SDS011;17573;55.922;37.540;2022-08-21T14:15:34;45.35;;;22.52;;
30862;SDS011;17573;55.922;37.540;2022-08-21T14:18:13;44.67;;;23.88;;
30862;SDS011;17573;55.922;37.540;2022-08-21T14:21:10;37.00;;;21.45;;
30862;SDS011;17573;55.922;37.540;2022-08-21T14:23:44;53.35;;;24.90;;
30862;SDS011;17573;55.922;37.540;2022-08-21T14:26:48;36.85;;;22.25;;
30862;SDS011;17573;55.922;37.540;2022-08-21T14:29:23;43.50;;;21.30;;
30862;SDS011;17573;55.922;37.540;2022-08-21T14:32:20;45.80;;;23.77;;
30862;SDS011;17573;55.922;37.540;2022-08-21T14:34:55;49.03;;;23.20;;
30862;SDS011;17573;55.922;37.540;2022-08-21T14:37:48;41.13;;;24.63;;
30862;SDS011;17573;55.922;37.540;2022-08-21T14:40:23;36.22;;;22.30;;
30862;SDS011;17573;55.922;37.540;2022-08-21T14:43:16;39.45;;;23.33;;
30862;SDS011;17573;55.922;37.540;2022-08-21T14:45:51;42.45;;;25.08;;
30862;SDS011;17573;55.922;37.540;2022-08-21T14:48:43;44.08;;;25.08;;
30862;SDS011;17573;55.922;37.540;2022-08-21T14:51:16;37.85;;;24.88;;
30862;SDS011;17573;55.922;37.540;2022-08-21T14:54:09;45.08;;;27.88;;
30862;SDS011;17573;55.922;37.540;2022-08-21T14:56:48;44.17;;;26.75;;
30862;SDS011;17573;55.922;37.540;2022-08-21T14:59:34;48.20;;;27.90;;
30862;SDS011;17573;55.922;37.540;2022-08-21T15:02:14;52.00;;;27.80;;
30862;SDS011;17573;55.922;37.540;2022-08-21T15:05:04;46.45;;;27.95;;
30862;SDS011;17573;55.922;37.540;2022-08-21T15:07:44;49.10;;;28.20;;
30862;SDS011;17573;55.922;37.540;2022-08-21T15:10:30;44.90;;;27.88;;
30862;SDS011;17573;55.922;37.540;2022-08-21T15:13:09;48.00;;;28.85;;
30862;SDS011;17573;55.922;37.540;2022-08-21T15:15:55;52.53;;;28.73;;
30862;SDS011;17573;55.922;37.540;2022-08-21T15:18:34;50.83;;;29.00;;
30862;SDS011;17573;55.922;37.540;2022-08-21T15:21:20;54.35;;;32.45;;
30862;SDS011;17573;55.922;37.540;2022-08-21T15:23:59;55.22;;;34.15;;
30862;SDS011;17573;55.922;37.540;2022-08-21T15:26:46;68.82;;;38.63;;
30862;SDS011;17573;55.922;37.540;2022-08-21T15:29:27;60.28;;;38.50;;
30862;SDS011;17573;55.922;37.540;2022-08-21T15:32:22;77.78;;;42.65;;
30862;SDS011;17573;55.922;37.540;2022-08-21T15:35:03;72.07;;;43.92;;
30862;SDS011;17573;55.922;37.540;2022-08-21T15:37:49;74.82;;;44.75;;
30862;SDS011;17573;55.922;37.540;2022-08-21T15:40:28;76.22;;;48.20;;
30862;SDS011;17573;55.922;37.540;2022-08-21T15:43:22;76.40;;;47.75;;
30862;SDS011;17573;55.922;37.540;2022-08-21T15:46:09;67.55;;;43.65;;
30862;SDS011;17573;55.922;37.540;2022-08-21T15:48:57;80.22;;;46.33;;
30862;SDS011;17573;55.922;37.540;2022-08-21T15:51:36;77.93;;;46.28;;
30862;SDS011;17573;55.922;37.540;2022-08-21T15:54:22;68.43;;;43.88;;
30862;SDS011;17573;55.922;37.540;2022-08-21T15:57:01;86.78;;;47.35;;
30862;SDS011;17573;55.922;37.540;2022-08-21T15:59:48;73.75;;;47.92;;
30862;SDS011;17573;55.922;37.540;2022-08-21T16:02:44;81.15;;;49.45;;
30862;SDS011;17573;55.922;37.540;2022-08-21T16:05:40;73.35;;;46.90;;
30862;SDS011;17573;55.922;37.540;2022-08-21T16:08:23;68.80;;;44.40;;
30862;SDS011;17573;55.922;37.540;2022-08-21T16:11:27;83.90;;;49.63;;
30862;SDS011;17573;55.922;37.540;2022-08-21T16:14:38;69.60;;;43.78;;
30862;SDS011;17573;55.922;37.540;2022-08-21T16:20:28;69.10;;;46.23;;
30862;SDS011;17573;55.922;37.540;2022-08-21T16:23:07;76.18;;;48.15;;
30862;SDS011;17573;55.922;37.540;2022-08-21T16:25:53;73.97;;;47.70;;
30862;SDS011;17573;55.922;37.540;2022-08-21T16:28:33;78.85;;;47.15;;
30862;SDS011;17573;55.922;37.540;2022-08-21T16:31:20;71.85;;;45.45;;
30862;SDS011;17573;55.922;37.540;2022-08-21T16:34:16;69.95;;;46.00;;
30862;SDS011;17573;55.922;37.540;2022-08-21T16:37:09;78.70;;;46.33;;
30862;SDS011;17573;55.922;37.540;2022-08-21T16:39:42;63.30;;;45.47;;
30862;SDS011;17573;55.922;37.540;2022-08-21T16:42:36;76.53;;;47.47;;
30862;SDS011;17573;55.922;37.540;2022-08-21T16:45:11;74.38;;;50.65;;
30862;SDS011;17573;55.922;37.540;2022-08-21T16:48:08;77.05;;;47.42;;
30862;SDS011;17573;55.922;37.540;2022-08-21T16:50:41;76.22;;;48.95;;
30862;SDS011;17573;55.922;37.540;2022-08-21T16:53:33;71.72;;;47.83;;
30862;SDS011;17573;55.922;37.540;2022-08-21T16:56:06;83.35;;;49.28;;
30862;SDS011;17573;55.922;37.540;2022-08-21T16:58:59;74.90;;;47.95;;
30862;SDS011;17573;55.922;37.540;2022-08-21T17:01:33;80.22;;;48.83;;
30862;SDS011;17573;55.922;37.540;2022-08-21T17:04:26;72.40;;;48.00;;
30862;SDS011;17573;55.922;37.540;2022-08-21T17:06:59;73.72;;;49.42;;
30862;SDS011;17573;55.922;37.540;2022-08-21T17:09:51;84.93;;;50.50;;
30862;SDS011;17573;55.922;37.540;2022-08-21T17:12:24;84.57;;;49.45;;
30862;SDS011;17573;55.922;37.540;2022-08-21T17:15:18;74.95;;;47.50;;
30862;SDS011;17573;55.922;37.540;2022-08-21T17:17:53;73.03;;;47.70;;
30862;SDS011;17573;55.922;37.540;2022-08-21T17:20:45;71.50;;;47.95;;
30862;SDS011;17573;55.922;37.540;2022-08-21T17:23:19;78.65;;;47.63;;
30862;SDS011;17573;55.922;37.540;2022-08-21T17:26:16;72.13;;;50.03;;
30862;SDS011;17573;55.922;37.540;2022-08-21T17:28:48;74.55;;;49.47;;
30862;SDS011;17573;55.922;37.540;2022-08-21T17:31:41;76.80;;;46.53;;
30862;SDS011;17573;55.922;37.540;2022-08-21T17:34:14;83.03;;;49.42;;
30862;SDS011;17573;55.922;37.540;2022-08-21T17:37:06;74.80;;;48.30;;